Time;durP1;ratioP1;P1;durP2;ratioP2;P2;SDS_P1;SDS_P2;PMS_P1;PMS_P2;Temp;Humidity;BMP_temperature;BMP_pressure;BME280_temperature;BME280_humidity;BME280_pressure;Samples;Min_cycle;Max_cycle;Signal;HPM_P1;HPM_P2
2022/08/18 00:00:25;;;;;;;4.00;3.80;;;20.60;99.90;;;;;;5069647;28;20477;-74
2022/08/18 00:03:16;;;;;;;4.43;4.03;;;20.60;99.90;;;;;;5063456;28;20465;-74
2022/08/18 00:06:24;;;;;;;4.70;4.30;;;20.50;99.90;;;;;;5064190;28;20469;-74
2022/08/18 00:09:19;;;;;;;4.43;4.13;;;20.50;99.90;;;;;;5064051;28;20852;-74
2022/08/18 00:12:14;;;;;;;4.23;4.03;;;20.40;99.90;;;;;;5067575;28;20964;-74
2022/08/18 00:15:08;;;;;;;4.63;4.33;;;20.50;99.90;;;;;;5064611;28;20869;-74
2022/08/18 00:17:58;;;;;;;4.23;3.93;;;20.50;99.90;;;;;;5064411;28;20613;-74
2022/08/18 00:20:47;;;;;;;4.47;4.20;;;20.40;99.90;;;;;;5064693;28;20457;-74
2022/08/18 00:23:38;;;;;;;5.30;4.90;;;20.40;99.90;;;;;;5066169;28;20516;-75
2022/08/18 00:26:35;;;;;;;4.60;4.20;;;20.40;99.90;;;;;;5066439;28;20477;-74
2022/08/18 00:29:24;;;;;;;5.13;4.83;;;20.40;99.90;;;;;;5065478;28;20469;-77
2022/08/18 00:32:15;;;;;;;5.37;4.97;;;20.40;99.90;;;;;;5067921;28;20553;-74
2022/08/18 00:35:12;;;;;;;5.10;4.70;;;20.40;99.90;;;;;;5071394;28;20542;-75
2022/08/18 00:38:06;;;;;;;5.07;4.77;;;20.40;99.90;;;;;;5073940;28;20490;-74
2022/08/18 00:40:55;;;;;;;5.53;5.13;;;20.30;99.90;;;;;;5072726;28;20506;-74
2022/08/18 00:43:51;;;;;;;6.43;5.57;;;20.30;99.90;;;;;;5073755;28;20480;-74
2022/08/18 00:46:40;;;;;;;6.37;5.90;;;20.40;99.90;;;;;;5079076;28;21003;-74
2022/08/18 00:49:28;;;;;;;6.40;6.00;;;20.30;99.90;;;;;;5072465;28;20983;-74
2022/08/18 00:52:22;;;;;;;6.30;5.80;;;20.30;99.90;;;;;;5073906;28;20495;-74
2022/08/18 00:55:16;;;;;;;6.43;5.83;;;20.30;99.90;;;;;;5075414;28;20478;-74
2022/08/18 00:58:15;;;;;;;5.93;5.43;;;20.30;99.90;;;;;;5068851;28;20988;-74
2022/08/18 01:01:14;;;;;;;7.13;6.47;;;20.30;99.90;;;;;;5060573;28;20604;-74
2022/08/18 01:04:14;;;;;;;6.30;5.80;;;20.20;99.90;;;;;;5069756;28;20454;-74
2022/08/18 01:07:11;;;;;;;7.17;6.57;;;20.20;99.90;;;;;;5060975;28;20634;-75
2022/08/18 01:09:59;;;;;;;6.90;6.40;;;20.20;99.90;;;;;;5054159;28;20550;-75
2022/08/18 01:12:50;;;;;;;7.50;6.73;;;20.20;99.90;;;;;;5064040;28;20622;-74
2022/08/18 01:15:38;;;;;;;7.60;7.00;;;20.10;99.90;;;;;;5066104;28;20568;-74
2022/08/18 01:21:54;;;;;;;7.87;7.37;;;20.10;99.90;;;;;;5062294;28;20910;-75
2022/08/18 01:27:55;;;;;;;8.93;8.30;;;20.00;99.90;;;;;;5069998;28;20974;-74
2022/08/18 01:30:56;;;;;;;7.60;6.90;;;20.00;99.90;;;;;;5067869;28;20446;-74
2022/08/18 01:33:52;;;;;;;8.87;8.27;;;20.00;99.90;;;;;;5063469;28;20539;-74
2022/08/18 01:36:44;;;;;;;8.40;7.80;;;20.00;99.90;;;;;;5062288;28;20595;-75
2022/08/18 01:39:42;;;;;;;;;;;;;;;;;;;;;
2022/08/18 01:42:52;;;;;;;8.37;7.77;;;20.00;99.90;;;;;;5070481;28;20989;-75
2022/08/18 01:45:43;;;;;;;8.90;8.20;;;20.00;99.90;;;;;;5064807;28;20552;-74
2022/08/18 01:48:33;;;;;;;8.27;7.67;;;20.00;99.90;;;;;;5075846;28;20535;-74
2022/08/18 01:51:21;;;;;;;8.17;7.47;;;19.90;99.90;;;;;;5074067;28;20526;-74
2022/08/18 01:54:30;;;;;;;9.20;8.50;;;19.90;99.90;;;;;;5062731;28;20453;-76
2022/08/18 01:57:22;;;;;;;8.97;8.20;;;19.90;99.90;;;;;;5060788;28;20446;-74
2022/08/18 02:00:15;;;;;;;8.97;8.20;;;19.90;99.90;;;;;;5062270;28;22698;-74
2022/08/18 02:03:07;;;;;;;9.77;9.03;;;19.90;99.90;;;;;;5059123;28;20791;-75
2022/08/18 02:06:12;;;;;;;9.53;8.77;;;19.80;99.90;;;;;;5062652;28;20511;-74
2022/08/18 02:09:04;;;;;;;9.00;8.27;;;19.80;99.90;;;;;;5066668;28;20445;-74
2022/08/18 02:11:52;;;;;;;9.17;8.47;;;19.80;99.90;;;;;;5058825;28;21126;-74
2022/08/18 02:14:43;;;;;;;9.20;8.47;;;19.80;99.90;;;;;;5058908;28;20456;-74
2022/08/18 02:17:42;;;;;;;8.60;8.03;;;19.70;99.90;;;;;;5061695;28;20461;-74
2022/08/18 02:20:31;;;;;;;9.13;8.43;;;19.70;99.90;;;;;;5067628;28;20508;-74
2022/08/18 02:23:24;;;;;;;9.30;8.60;;;19.70;99.90;;;;;;5059114;28;21179;-74
2022/08/18 02:26:20;;;;;;;9.47;8.77;;;19.70;99.90;;;;;;5064867;28;20476;-75
2022/08/18 02:29:14;;;;;;;10.00;9.20;;;19.60;99.90;;;;;;5059753;28;22397;-74
2022/08/18 02:32:13;;;;;;;9.40;8.70;;;19.60;99.90;;;;;;5065014;28;20822;-75
2022/08/18 02:35:06;;;;;;;9.10;8.50;;;19.60;99.90;;;;;;5068637;28;20544;-74
2022/08/18 02:38:01;;;;;;;9.93;9.23;;;19.60;99.90;;;;;;5072009;28;20454;-74
2022/08/18 02:40:55;;;;;;;9.93;9.23;;;19.60;99.90;;;;;;5075217;28;20846;-74
2022/08/18 02:43:51;;;;;;;9.90;9.10;;;19.60;99.90;;;;;;5069086;28;20527;-74
2022/08/18 02:46:43;;;;;;;9.97;9.23;;;19.50;99.90;;;;;;5067891;28;20470;-75
2022/08/18 02:49:32;;;;;;;10.83;9.93;;;19.50;99.90;;;;;;5068541;28;20604;-74
2022/08/18 02:52:22;;;;;;;10.23;9.50;;;19.50;99.90;;;;;;5071351;28;20540;-74
2022/08/18 02:55:11;;;;;;;10.00;9.30;;;19.50;99.90;;;;;;5075765;28;20967;-74
2022/08/18 02:58:02;;;;;;;10.20;9.50;;;19.50;99.90;;;;;;5069895;28;20941;-74
2022/08/18 03:00:50;;;;;;;10.67;9.87;;;19.40;99.90;;;;;;5075467;28;20985;-74
2022/08/18 03:03:47;;;;;;;10.20;9.43;;;19.40;99.90;;;;;;5064509;28;20484;-74
2022/08/18 03:06:38;;;;;;;10.40;9.57;;;19.40;99.90;;;;;;5063884;28;20473;-74
2022/08/18 03:09:33;;;;;;;9.60;8.80;;;19.40;99.90;;;;;;5070852;28;20446;-74
2022/08/18 03:12:27;;;;;;;10.37;9.57;;;19.40;99.90;;;;;;5065023;28;20461;-74
2022/08/18 03:15:15;;;;;;;10.80;10.03;;;19.40;99.90;;;;;;5071114;28;20815;-74
2022/08/18 03:18:05;;;;;;;10.30;9.60;;;19.30;99.90;;;;;;5063641;28;20557;-75
2022/08/18 03:21:05;;;;;;;11.07;9.90;;;19.30;99.90;;;;;;5068988;28;20480;-74
2022/08/18 03:24:02;;;;;;;10.70;9.80;;;19.30;99.90;;;;;;5066627;28;20545;-75
2022/08/18 03:26:58;;;;;;;10.53;9.73;;;19.30;99.90;;;;;;5061503;28;20477;-75
2022/08/18 03:29:47;;;;;;;10.90;10.10;;;19.30;99.90;;;;;;5067361;28;20480;-73
2022/08/18 03:32:40;;;;;;;11.13;10.10;;;19.30;99.90;;;;;;5066960;28;20450;-74
2022/08/18 03:35:36;;;;;;;10.90;10.10;;;19.30;99.90;;;;;;5067468;28;20505;-75
2022/08/18 03:38:24;;;;;;;11.00;10.20;;;19.30;99.90;;;;;;5065094;28;20484;-74
2022/08/18 03:41:21;;;;;;;11.07;10.27;;;19.30;99.90;;;;;;5064651;28;20538;-74
2022/08/18 03:44:39;;;;;;;10.00;9.30;;;19.30;99.90;;;;;;5067167;28;20512;-75
2022/08/18 03:47:27;;;;;;;11.27;10.47;;;19.30;99.90;;;;;;5065573;28;20533;-74
2022/08/18 03:50:18;;;;;;;10.90;10.00;;;19.30;99.90;;;;;;5071541;28;20540;-74
2022/08/18 03:53:07;;;;;;;10.50;9.60;;;19.20;99.90;;;;;;5075278;28;20471;-75
2022/08/18 03:56:11;;;;;;;10.53;9.83;;;19.20;99.90;;;;;;5067997;28;21015;-74
2022/08/18 03:59:04;;;;;;;11.23;10.33;;;19.20;99.90;;;;;;5065186;28;20561;-74
2022/08/18 04:02:02;;;;;;;11.50;10.50;;;19.20;99.90;;;;;;5066010;28;20563;-73
2022/08/18 04:04:52;;;;;;;10.80;10.10;;;19.20;99.90;;;;;;5071456;28;20488;-74
2022/08/18 04:07:41;;;;;;;10.80;10.00;;;19.10;99.90;;;;;;5066355;28;20469;-73
2022/08/18 04:10:37;;;;;;;10.23;9.50;;;19.10;99.90;;;;;;5063109;28;20446;-74
2022/08/18 04:13:27;;;;;;;11.43;10.60;;;19.10;99.90;;;;;;5064472;28;20954;-74
2022/08/18 04:16:16;;;;;;;11.37;10.53;;;19.10;99.90;;;;;;5066407;28;21132;-74
2022/08/18 04:19:12;;;;;;;12.40;11.50;;;19.10;99.90;;;;;;5064244;28;20496;-73
2022/08/18 04:22:04;;;;;;;13.23;12.13;;;19.10;99.90;;;;;;5065100;28;20532;-74
2022/08/18 04:24:53;;;;;;;11.20;10.40;;;19.10;99.90;;;;;;5069787;28;20453;-73
2022/08/18 04:27:42;;;;;;;11.80;10.80;;;19.10;99.90;;;;;;5065443;28;20507;-73
2022/08/18 04:30:34;;;;;;;11.17;10.37;;;19.10;99.90;;;;;;5071486;28;20992;-74
2022/08/18 04:33:28;;;;;;;11.40;10.50;;;19.10;99.90;;;;;;5071638;28;20456;-73
2022/08/18 04:36:27;;;;;;;12.83;11.80;;;19.10;99.90;;;;;;5065924;28;20475;-74
2022/08/18 04:39:18;;;;;;;14.20;13.10;;;19.10;99.90;;;;;;5065413;28;20450;-73
2022/08/18 04:42:06;;;;;;;13.40;12.40;;;19.10;99.90;;;;;;5068265;28;20562;-74
2022/08/18 04:44:54;;;;;;;12.40;11.47;;;19.10;99.90;;;;;;5074180;28;20461;-74
2022/08/18 04:47:43;;;;;;;14.13;13.00;;;19.20;99.90;;;;;;5073554;28;20548;-74
2022/08/18 04:50:35;;;;;;;13.07;12.17;;;19.20;99.90;;;;;;5069696;28;20449;-73
2022/08/18 04:53:44;;;;;;;13.17;12.20;;;19.30;99.90;;;;;;5073936;28;20445;-74
2022/08/18 04:56:40;;;;;;;13.70;12.60;;;19.30;99.90;;;;;;5070637;28;20948;-74
2022/08/18 04:59:32;;;;;;;13.80;12.80;;;19.30;99.90;;;;;;5062852;28;20506;-78
2022/08/18 05:02:23;;;;;;;12.90;11.80;;;19.40;99.90;;;;;;5058788;28;20643;-72
2022/08/18 05:05:11;;;;;;;12.93;11.90;;;19.40;99.90;;;;;;5072819;28;22097;-72
2022/08/18 05:07:59;;;;;;;12.97;11.80;;;19.40;99.90;;;;;;5071880;28;20465;-69
2022/08/18 05:10:53;;;;;;;13.70;12.67;;;19.40;99.90;;;;;;5072192;28;20464;-69
2022/08/18 05:13:56;;;;;;;15.00;13.67;;;19.50;99.90;;;;;;5063748;28;21935;-70
2022/08/18 05:16:50;;;;;;;13.80;12.60;;;19.50;99.90;;;;;;5051106;28;21321;-70
2022/08/18 05:19:44;;;;;;;13.37;12.07;;;19.50;99.90;;;;;;5054603;28;21043;-70
2022/08/18 05:22:42;;;;;;;12.30;11.40;;;19.60;99.90;;;;;;5053144;28;21422;-74
2022/08/18 05:25:30;;;;;;;13.80;12.60;;;19.60;99.90;;;;;;5062228;28;20469;-74
2022/08/18 05:28:20;;;;;;;14.60;13.30;;;19.60;99.90;;;;;;5067988;28;20552;-74
2022/08/18 05:31:18;;;;;;;13.37;12.17;;;19.60;99.90;;;;;;5054113;28;20465;-74
2022/08/18 05:34:20;;;;;;;13.20;12.10;;;19.70;99.90;;;;;;5062530;28;20584;-75
2022/08/18 05:37:31;;;;;;;12.33;11.43;;;19.70;99.90;;;;;;5071717;28;20480;-75
2022/08/18 05:40:24;;;;;;;14.30;13.10;;;19.70;99.90;;;;;;5079237;28;20464;-75
2022/08/18 05:43:14;;;;;;;14.37;13.27;;;19.80;99.90;;;;;;5074132;28;20535;-74
2022/08/18 05:46:10;;;;;;;14.40;13.17;;;19.80;99.90;;;;;;5067922;28;20499;-73
2022/08/18 05:49:20;;;;;;;14.40;13.30;;;19.80;99.90;;;;;;5071033;28;20523;-72
2022/08/18 05:52:19;;;;;;;14.80;13.67;;;19.90;99.90;;;;;;5068932;28;20892;-72
2022/08/18 05:58:23;;;;;;;14.53;13.20;;;20.00;99.90;;;;;;5064959;28;20457;-72
2022/08/18 06:01:40;;;;;;;13.50;12.50;;;20.00;99.90;;;;;;5068228;28;20470;-72
2022/08/18 06:04:47;;;;;;;13.70;12.60;;;20.00;99.90;;;;;;5045764;28;20458;-72
2022/08/18 06:07:41;;;;;;;13.77;12.67;;;20.00;99.90;;;;;;5057994;28;20476;-74
2022/08/18 06:10:30;;;;;;;13.67;12.53;;;20.10;99.90;;;;;;5072938;28;20496;-72
2022/08/18 06:13:19;;;;;;;14.80;13.63;;;20.10;99.90;;;;;;5075603;28;20488;-72
2022/08/18 06:16:14;;;;;;;13.30;12.20;;;20.10;99.90;;;;;;5076015;28;20481;-72
2022/08/18 06:19:28;;;;;;;13.77;12.50;;;20.10;99.90;;;;;;5075374;28;20489;-72
2022/08/18 06:22:28;;;;;;;15.40;14.00;;;20.10;99.90;;;;;;5073156;28;21293;-72
2022/08/18 06:25:25;;;;;;;15.83;14.47;;;20.10;99.90;;;;;;5072780;28;20504;-72
2022/08/18 06:28:16;;;;;;;15.03;13.83;;;20.20;99.90;;;;;;5071846;28;20829;-72
2022/08/18 06:31:14;;;;;;;16.83;15.33;;;20.20;99.90;;;;;;5063197;28;20458;-72
2022/08/18 06:34:13;;;;;;;16.23;14.93;;;20.30;99.90;;;;;;5066454;28;20466;-72
2022/08/18 06:37:12;;;;;;;16.50;15.20;;;20.30;99.90;;;;;;5073460;28;20477;-72
2022/08/18 06:40:00;;;;;;;17.47;15.93;;;20.30;99.90;;;;;;5076549;28;20570;-72
2022/08/18 06:42:49;;;;;;;17.30;15.90;;;20.40;99.90;;;;;;5074159;28;20473;-72
2022/08/18 06:45:41;;;;;;;18.73;17.03;;;20.40;99.90;;;;;;5075108;28;20487;-72
2022/08/18 06:48:37;;;;;;;18.67;16.90;;;20.40;99.90;;;;;;5074681;28;20481;-72
2022/08/18 06:51:28;;;;;;;17.57;15.90;;;20.60;99.90;;;;;;5073823;28;20586;-72
2022/08/18 06:54:28;;;;;;;15.73;14.43;;;20.50;99.90;;;;;;5074156;28;20506;-72
2022/08/18 06:57:26;;;;;;;17.27;15.77;;;20.50;99.90;;;;;;5060478;28;20453;-72
2022/08/18 07:00:22;;;;;;;16.37;14.90;;;20.50;99.90;;;;;;5071958;28;20537;-72
2022/08/18 07:03:13;;;;;;;20.07;18.37;;;20.50;99.90;;;;;;5073031;28;20481;-72
2022/08/18 07:06:04;;;;;;;19.70;18.07;;;20.60;99.90;;;;;;5075336;28;20560;-72
2022/08/18 07:08:55;;;;;;;19.80;18.20;;;20.60;99.90;;;;;;5076223;28;20933;-72
2022/08/18 07:11:59;;;;;;;22.70;20.73;;;20.70;99.90;;;;;;5076907;28;20565;-72
2022/08/18 07:14:50;;;;;;;26.23;23.83;;;20.70;99.90;;;;;;5079385;28;20473;-72
2022/08/18 07:17:40;;;;;;;26.43;24.13;;;20.70;99.90;;;;;;5078337;28;21034;-72
2022/08/18 07:20:31;;;;;;;29.17;26.47;;;20.80;99.90;;;;;;5069724;28;20464;-72
2022/08/18 07:23:33;;;;;;;31.33;28.13;;;20.70;99.90;;;;;;5077121;28;20574;-72
2022/08/18 07:26:22;;;;;;;30.23;27.13;;;20.70;99.90;;;;;;5074599;28;20506;-72
2022/08/18 07:29:14;;;;;;;33.57;30.07;;;20.70;99.90;;;;;;5070975;28;21538;-72
2022/08/18 07:32:07;;;;;;;30.83;27.63;;;20.70;99.90;;;;;;5076384;28;20490;-72
2022/08/18 07:35:10;;;;;;;34.43;30.07;;;20.60;99.90;;;;;;5072693;28;20543;-72
2022/08/18 07:38:03;;;;;;;30.40;27.27;;;20.70;99.90;;;;;;5062968;28;20598;-72
2022/08/18 07:41:15;;;;;;;29.60;26.47;;;20.60;99.90;;;;;;5074993;28;20491;-72
2022/08/18 07:44:17;;;;;;;32.70;29.23;;;20.50;99.90;;;;;;5076528;28;20559;-72
2022/08/18 07:47:14;;;;;;;29.87;26.67;;;20.60;99.90;;;;;;5075993;28;20961;-72
2022/08/18 07:50:03;;;;;;;31.33;27.20;;;20.50;99.90;;;;;;5076820;28;20540;-72
2022/08/18 07:53:22;;;;;;;28.37;25.27;;;20.50;99.90;;;;;;5078957;28;20460;-72
2022/08/18 07:56:17;;;;;;;30.30;27.20;;;20.60;99.90;;;;;;5072081;28;20472;-72
2022/08/18 07:59:16;;;;;;;30.23;27.10;;;20.60;99.90;;;;;;5077946;28;20482;-72
2022/08/18 08:02:24;;;;;;;28.53;25.63;;;20.60;99.90;;;;;;5078204;28;20581;-72
2022/08/18 08:05:20;;;;;;;29.00;26.10;;;20.60;99.90;;;;;;5073327;28;20614;-72
2022/08/18 08:08:20;;;;;;;29.67;26.60;;;20.60;99.90;;;;;;5078095;28;20563;-72
2022/08/18 08:11:20;;;;;;;27.93;25.20;;;20.50;99.90;;;;;;5074499;28;20488;-72
2022/08/18 08:14:34;;;;;;;26.33;23.60;;;20.50;99.90;;;;;;5072689;28;20474;-71
2022/08/18 08:17:29;;;;;;;28.53;24.90;;;20.60;99.90;;;;;;5078351;28;20462;-72
2022/08/18 08:20:30;;;;;;;29.67;25.53;;;20.60;99.90;;;;;;5077285;28;20880;-72
2022/08/18 08:23:28;;;;;;;30.23;26.50;;;20.60;99.90;;;;;;5068239;28;20484;-72
2022/08/18 08:26:29;;;;;;;35.27;26.60;;;20.60;99.90;;;;;;5075776;28;20524;-71
2022/08/18 08:29:29;;;;;;;32.40;26.10;;;20.60;99.90;;;;;;5078222;28;20541;-72
2022/08/18 08:32:28;;;;;;;32.23;26.90;;;20.60;99.90;;;;;;5073341;28;21038;-71
2022/08/18 08:35:21;;;;;;;32.03;26.70;;;20.60;99.90;;;;;;5076950;28;20546;-71
2022/08/18 08:38:40;;;;;;;30.83;24.77;;;20.60;99.90;;;;;;5077194;28;20510;-71
2022/08/18 08:41:36;;;;;;;28.10;25.10;;;20.70;99.90;;;;;;5075542;28;20452;-71
2022/08/18 08:44:31;;;;;;;24.07;21.37;;;20.70;99.90;;;;;;5076804;28;21088;-71
2022/08/18 08:47:25;;;;;;;24.20;21.80;;;20.80;99.90;;;;;;5073187;28;20461;-71
2022/08/18 08:50:17;;;;;;;23.03;20.73;;;20.80;99.90;;;;;;5079236;28;20502;-71
2022/08/18 08:53:12;;;;;;;23.27;20.90;;;20.90;99.90;;;;;;5075669;28;20450;-71
2022/08/18 08:56:06;;;;;;;22.47;20.17;;;21.00;99.90;;;;;;5075955;28;20530;-71
2022/08/18 08:58:58;;;;;;;23.37;21.07;;;21.00;99.90;;;;;;5074667;28;20549;-71
2022/08/18 09:01:58;;;;;;;24.70;22.20;;;21.10;99.90;;;;;;5074287;28;20454;-71
2022/08/18 09:04:52;;;;;;;23.00;20.63;;;21.20;99.90;;;;;;5071590;28;20936;-71
2022/08/18 09:08:22;;;;;;;22.70;20.27;;;21.20;99.90;;;;;;5035230;28;1119897;-71
2022/08/18 09:11:36;;;;;;;24.30;21.87;;;21.30;99.90;;;;;;5076904;28;20337;-71
2022/08/18 09:14:57;;;;;;;26.33;23.33;;;21.30;99.90;;;;;;5073202;28;20534;-72
2022/08/18 09:18:28;;;;;;;23.57;21.27;;;21.40;99.90;;;;;;5075642;28;20497;-72
2022/08/18 09:21:36;;;;;;;23.90;21.43;;;21.50;99.90;;;;;;5074227;28;20477;-72
2022/08/18 09:24:28;;;;;;;24.27;21.77;;;21.60;99.90;;;;;;5072208;28;20611;-72
2022/08/18 09:27:30;;;;;;;24.80;22.30;;;21.60;99.90;;;;;;5072984;28;20918;-72
2022/08/18 09:30:45;;;;;;;24.23;21.83;;;21.60;99.90;;;;;;5074607;28;20457;-72
2022/08/18 09:34:02;;;;;;;26.20;23.70;;;21.70;99.90;;;;;;5075116;28;20532;-72
2022/08/18 09:37:09;;;;;;;26.83;24.30;;;21.80;99.90;;;;;;5071570;28;20470;-72
2022/08/18 09:43:38;;;;;;;25.47;22.97;;;22.00;99.90;;;;;;5071361;28;21017;-72
2022/08/18 09:46:53;;;;;;;29.33;26.63;;;22.00;99.90;;;;;;5074618;28;20509;-72
2022/08/18 09:49:49;;;;;;;28.80;26.13;;;22.00;99.90;;;;;;5071447;28;21008;-72
2022/08/18 09:52:49;;;;;;;32.00;29.17;;;22.00;99.90;;;;;;5073812;28;20842;-72
2022/08/18 09:55:53;;;;;;;31.30;28.20;;;22.10;99.90;;;;;;5068162;28;20468;-72
2022/08/18 09:58:57;;;;;;;34.03;30.73;;;22.20;99.90;;;;;;5074089;28;20453;-72
2022/08/18 10:01:46;;;;;;;30.00;27.00;;;22.20;99.90;;;;;;5076522;28;20454;-72
2022/08/18 10:04:47;;;;;;;28.70;26.20;;;22.30;99.90;;;;;;5072640;28;20493;-72
2022/08/18 10:07:39;;;;;;;31.40;28.60;;;22.30;99.90;;;;;;5072643;28;20460;-72
2022/08/18 10:10:38;;;;;;;33.57;30.00;;;22.30;99.90;;;;;;5075916;28;20452;-72
2022/08/18 10:13:56;;;;;;;31.73;28.57;;;22.40;99.90;;;;;;5073956;28;20445;-72
2022/08/18 10:16:54;;;;;;;33.40;30.43;;;22.40;99.90;;;;;;5063453;28;20768;-72
2022/08/18 10:20:16;;;;;;;29.47;26.83;;;22.40;99.90;;;;;;5072091;28;20563;-72
2022/08/18 10:23:47;;;;;;;27.10;24.70;;;22.50;99.90;;;;;;5067073;28;20544;-72
2022/08/18 10:27:32;;;;;;;26.80;24.43;;;22.60;99.90;;;;;;5062163;28;20480;-72
2022/08/18 10:30:59;;;;;;;23.37;21.40;;;22.60;99.90;;;;;;5063198;28;20991;-72
2022/08/18 10:34:03;;;;;;;25.47;22.87;;;22.70;99.90;;;;;;5062127;28;21420;-72
2022/08/18 10:37:12;;;;;;;25.00;22.50;;;22.70;99.90;;;;;;5069347;28;20556;-72
2022/08/18 10:40:18;;;;;;;27.00;24.50;;;22.70;99.90;;;;;;5075047;28;20471;-72
2022/08/18 10:43:18;;;;;;;28.27;25.77;;;22.90;99.90;;;;;;5064115;28;20809;-72
2022/08/18 10:46:31;;;;;;;25.10;23.00;;;22.90;99.90;;;;;;5072595;28;20472;-72
2022/08/18 10:49:26;;;;;;;25.30;23.07;;;22.90;99.90;;;;;;5069506;28;20464;-72
2022/08/18 10:52:28;;;;;;;26.33;24.13;;;23.00;99.90;;;;;;5067818;28;20457;-72
2022/08/18 10:55:37;;;;;;;27.03;24.50;;;23.00;99.90;;;;;;5074603;28;20565;-72
2022/08/18 10:58:51;;;;;;;26.87;24.47;;;23.10;99.90;;;;;;5064383;28;21045;-72
2022/08/18 11:02:09;;;;;;;27.93;25.63;;;23.10;99.90;;;;;;5065894;28;20596;-72
2022/08/18 11:04:58;;;;;;;29.70;27.20;;;23.10;99.90;;;;;;5062788;28;20485;-72
2022/08/18 11:07:49;;;;;;;26.60;24.20;;;23.10;99.90;;;;;;5067833;28;20527;-72
2022/08/18 11:11:07;;;;;;;23.97;21.87;;;23.20;99.90;;;;;;5073790;28;20460;-72
2022/08/18 11:14:43;;;;;;;25.10;22.90;;;23.30;99.90;;;;;;5072512;28;20444;-72
2022/08/18 11:17:42;;;;;;;24.43;22.10;;;23.40;99.90;;;;;;5050215;28;20473;-72
2022/08/18 11:20:32;;;;;;;25.60;23.30;;;23.40;99.90;;;;;;5076651;28;20450;-72
2022/08/18 11:23:20;;;;;;;24.00;21.90;;;23.40;99.90;;;;;;5072468;28;20466;-72
2022/08/18 11:26:17;;;;;;;22.27;20.27;;;23.50;99.90;;;;;;5053062;28;20488;-72
2022/08/18 11:29:27;;;;;;;19.87;18.17;;;23.60;99.90;;;;;;5046680;28;20450;-72
2022/08/18 11:32:22;;;;;;;18.93;17.37;;;23.80;99.90;;;;;;5061194;28;20436;-72
2022/08/18 11:35:15;;;;;;;19.50;18.00;;;23.90;99.90;;;;;;5063121;28;20446;-72
2022/08/18 11:38:12;;;;;;;17.30;15.90;;;24.00;99.90;;;;;;5064500;28;20965;-72
2022/08/18 11:41:17;;;;;;;19.87;18.27;;;24.20;99.90;;;;;;5075512;28;20529;-73
2022/08/18 11:44:19;;;;;;;22.57;20.57;;;24.30;99.90;;;;;;5072205;28;20809;-72
2022/08/18 11:47:16;;;;;;;22.83;20.73;;;24.50;99.90;;;;;;5065639;28;20480;-72
2022/08/18 11:50:27;;;;;;;20.97;19.27;;;24.60;99.90;;;;;;5063801;28;20899;-72
2022/08/18 11:53:23;;;;;;;20.73;19.03;;;24.70;99.90;;;;;;5064677;28;20454;-72
2022/08/18 11:56:24;;;;;;;18.10;16.67;;;24.70;99.90;;;;;;5066165;28;20527;-74
2022/08/18 11:59:32;;;;;;;14.57;13.47;;;24.90;99.90;;;;;;5067442;28;20461;-72
2022/08/18 12:02:41;;;;;;;15.47;13.87;;;24.90;99.90;;;;;;5066226;28;20461;-72
2022/08/18 12:05:42;;;;;;;13.23;12.23;;;25.10;99.90;;;;;;5063989;28;20556;-74
2022/08/18 12:08:52;;;;;;;15.60;14.30;;;25.30;99.90;;;;;;5068045;28;20806;-76
2022/08/18 12:12:04;;;;;;;14.60;13.40;;;25.30;99.90;;;;;;5063230;28;20462;-75
2022/08/18 12:15:01;;;;;;;14.87;13.77;;;25.30;99.90;;;;;;5058716;28;21102;-74
2022/08/18 12:18:04;;;;;;;13.17;12.17;;;25.40;99.90;;;;;;5072649;28;21121;-75
2022/08/18 12:20:52;;;;;;;12.60;11.60;;;25.50;99.90;;;;;;5071335;28;20457;-75
2022/08/18 12:23:41;;;;;;;14.17;12.97;;;25.60;99.90;;;;;;5069779;28;20575;-75
2022/08/18 12:26:39;;;;;;;13.80;12.80;;;25.70;99.90;;;;;;5070244;28;20477;-74
2022/08/18 12:29:34;;;;;;;13.60;12.50;;;25.80;99.90;;;;;;5073327;28;20464;-74
2022/08/18 12:32:34;;;;;;;12.90;11.90;;;25.80;99.90;;;;;;5073520;28;20446;-74
2022/08/18 12:35:37;;;;;;;12.77;11.87;;;25.90;99.90;;;;;;5069998;28;20607;-73
2022/08/18 12:38:29;;;;;;;12.70;11.67;;;26.10;99.90;;;;;;5071685;28;20821;-74
2022/08/18 12:41:18;;;;;;;10.83;10.03;;;26.30;99.90;;;;;;5072821;28;20543;-74
2022/08/18 12:44:11;;;;;;;11.70;10.90;;;26.50;99.90;;;;;;5073936;28;20453;-74
2022/08/18 12:47:02;;;;;;;12.80;11.80;;;26.60;99.90;;;;;;5072227;28;20492;-73
2022/08/18 12:49:52;;;;;;;14.67;13.67;;;26.70;99.90;;;;;;5073681;28;20472;-75
2022/08/18 12:52:40;;;;;;;13.20;12.10;;;26.60;99.90;;;;;;5076576;28;20478;-75
2022/08/18 12:55:43;;;;;;;13.17;12.27;;;26.50;99.90;;;;;;5070719;28;20477;-75
2022/08/18 12:58:34;;;;;;;11.93;11.07;;;26.40;99.90;;;;;;5071085;28;20471;-75
2022/08/18 13:01:24;;;;;;;12.80;11.90;;;26.40;99.90;;;;;;5062595;28;20445;-75
2022/08/18 13:04:15;;;;;;;11.77;10.67;;;26.40;99.90;;;;;;5062111;28;20462;-73
2022/08/18 13:07:07;;;;;;;12.40;11.60;;;26.50;99.90;;;;;;5054180;28;21066;-69
2022/08/18 13:09:55;;;;;;;13.43;12.17;;;26.60;99.90;;;;;;5069790;28;20511;-69
2022/08/18 13:12:45;;;;;;;13.07;12.17;;;26.70;99.90;;;;;;5066854;28;20453;-69
2022/08/18 13:15:35;;;;;;;13.77;12.70;;;26.60;99.90;;;;;;5069685;28;20943;-69
2022/08/18 13:18:23;;;;;;;11.90;11.00;;;26.60;99.90;;;;;;5065938;28;20454;-69
2022/08/18 13:21:17;;;;;;;11.57;10.60;;;26.60;99.90;;;;;;5075239;28;20442;-68
2022/08/18 13:24:08;;;;;;;11.57;10.67;;;26.70;99.90;;;;;;5069351;28;20503;-69
2022/08/18 13:26:56;;;;;;;11.20;10.50;;;26.80;99.90;;;;;;5067902;28;20473;-69
2022/08/18 13:29:45;;;;;;;12.93;12.03;;;26.80;99.90;;;;;;5066265;28;20899;-69
2022/08/18 13:32:39;;;;;;;12.67;11.87;;;26.90;99.90;;;;;;5072885;28;20508;-69
2022/08/18 13:35:48;;;;;;;12.90;12.00;;;26.90;99.90;;;;;;5065689;28;20642;-69
2022/08/18 13:38:42;;;;;;;12.20;11.40;;;26.80;99.90;;;;;;5066524;28;20454;-69
2022/08/18 13:41:32;;;;;;;12.63;11.70;;;26.70;99.90;;;;;;5067082;28;20440;-72
2022/08/18 13:44:23;;;;;;;13.20;11.87;;;26.70;99.90;;;;;;5061400;28;20965;-72
2022/08/18 13:47:14;;;;;;;12.80;11.80;;;26.80;99.90;;;;;;5064423;28;20956;-72
2022/08/18 13:50:02;;;;;;;11.17;10.37;;;26.90;99.90;;;;;;5064252;28;20454;-74
2022/08/18 13:52:54;;;;;;;12.27;11.40;;;27.10;99.90;;;;;;5061598;28;20465;-74
2022/08/18 13:55:43;;;;;;;10.47;9.77;;;27.50;99.90;;;;;;5063378;28;20481;-72
2022/08/18 13:58:33;;;;;;;9.87;9.27;;;27.50;99.90;;;;;;5062486;28;20947;-72
2022/08/18 14:01:21;;;;;;;11.27;10.47;;;27.80;99.90;;;;;;5057835;28;20519;-72
2022/08/18 14:04:30;;;;;;;10.60;9.80;;;27.60;99.90;;;;;;5057145;28;21005;-73
2022/08/18 14:07:20;;;;;;;10.37;9.77;;;27.60;99.90;;;;;;5069453;28;20995;-73
2022/08/18 14:10:15;;;;;;;11.50;10.67;;;27.80;99.90;;;;;;5054237;28;20460;-74
2022/08/18 14:13:05;;;;;;;10.97;10.17;;;28.00;99.90;;;;;;5059830;28;21800;-73
2022/08/18 14:16:12;;;;;;;10.50;9.60;;;28.20;99.90;;;;;;5054096;28;20566;-73
2022/08/18 14:28:29;;;;;;;10.37;9.67;;;28.70;99.90;;;;;;5069601;28;20535;-74
2022/08/18 14:31:19;;;;;;;12.80;11.90;;;28.80;99.90;;;;;;5059604;28;20552;-74
2022/08/18 14:34:10;;;;;;;10.93;10.30;;;28.80;99.90;;;;;;5062300;28;22061;-73
2022/08/18 14:36:59;;;;;;;10.50;9.80;;;29.10;99.90;;;;;;5065746;28;20473;-73
2022/08/18 14:39:49;;;;;;;10.40;9.73;;;29.10;99.90;;;;;;5068071;28;20454;-73
2022/08/18 14:42:41;;;;;;;11.80;11.00;;;29.40;99.90;;;;;;5071551;28;20450;-73
2022/08/18 14:45:46;;;;;;;12.37;11.47;;;29.50;99.90;;;;;;5075050;28;20571;-75
2022/08/18 14:48:37;;;;;;;11.33;10.47;;;29.80;99.90;;;;;;5068692;28;20449;-73
2022/08/18 14:51:29;;;;;;;11.90;11.20;;;30.10;99.90;;;;;;5069798;28;20446;-73
2022/08/18 14:54:20;;;;;;;12.10;11.20;;;30.50;99.90;;;;;;5072715;28;20996;-73
2022/08/18 14:57:11;;;;;;;11.73;10.93;;;31.20;99.90;;;;;;5066006;28;20489;-72
2022/08/18 14:59:59;;;;;;;11.40;10.70;;;31.30;99.90;;;;;;5070516;28;20484;-73
2022/08/18 15:02:49;;;;;;;14.27;13.27;;;31.10;99.90;;;;;;5072065;28;20458;-72
2022/08/18 15:05:39;;;;;;;12.90;11.90;;;31.00;99.90;;;;;;5071023;28;20502;-72
2022/08/18 15:08:29;;;;;;;12.60;11.80;;;30.70;99.90;;;;;;5063734;28;20464;-73
2022/08/18 15:11:19;;;;;;;12.43;11.53;;;30.40;99.90;;;;;;5060523;28;20472;-73
2022/08/18 15:14:11;;;;;;;13.60;12.70;;;30.20;99.90;;;;;;5067329;28;20991;-73
2022/08/18 15:17:00;;;;;;;12.33;11.53;;;29.80;99.90;;;;;;5068861;28;20519;-73
2022/08/18 15:19:48;;;;;;;13.23;12.30;;;29.60;99.90;;;;;;5065807;28;20526;-73
2022/08/18 15:25:58;;;;;;;12.23;11.43;;;29.20;99.90;;;;;;5062887;28;21075;-73
2022/08/18 15:28:47;;;;;;;11.30;10.50;;;29.20;99.90;;;;;;5074001;28;20458;-73